sensor_id;sensor_type;location;lat;lon;timestamp;temperature;humidity
12460;DHT22;6295;49.452;8.466;2023-07-02T03:14:09;17.30;99.90
12460;DHT22;6295;49.452;8.466;2023-07-02T03:22:14;17.30;99.90
12460;DHT22;6295;49.452;8.466;2023-07-02T03:42:33;17.00;99.90
12460;DHT22;6295;49.452;8.466;2023-07-02T03:46:38;17.00;99.90
12460;DHT22;6295;49.452;8.466;2023-07-02T03:54:42;17.00;99.90
12460;DHT22;6295;49.452;8.466;2023-07-02T03:58:44;17.00;99.90
12460;DHT22;6295;49.452;8.466;2023-07-02T04:14:56;17.00;99.90
12460;DHT22;6295;49.452;8.466;2023-07-02T04:18:59;17.00;99.90
12460;DHT22;6295;49.452;8.466;2023-07-02T04:23:02;17.00;99.90
12460;DHT22;6295;49.452;8.466;2023-07-02T04:35:10;17.30;99.90
12460;DHT22;6295;49.452;8.466;2023-07-02T04:39:12;17.40;99.90
12460;DHT22;6295;49.452;8.466;2023-07-02T04:43:14;17.40;99.90
12460;DHT22;6295;49.452;8.466;2023-07-02T04:51:22;17.40;99.90
12460;DHT22;6295;49.452;8.466;2023-07-02T04:59:27;17.50;99.90
12460;DHT22;6295;49.452;8.466;2023-07-02T05:03:29;17.60;99.90
12460;DHT22;6295;49.452;8.466;2023-07-02T05:11:34;17.70;99.90
12460;DHT22;6295;49.452;8.466;2023-07-02T05:19:39;17.80;99.90
12460;DHT22;6295;49.452;8.466;2023-07-02T05:23:43;17.80;99.90
12460;DHT22;6295;49.452;8.466;2023-07-02T05:27:45;17.80;99.90
12460;DHT22;6295;49.452;8.466;2023-07-02T05:35:50;18.00;99.90
12460;DHT22;6295;49.452;8.466;2023-07-02T05:39:53;18.00;99.90
12460;DHT22;6295;49.452;8.466;2023-07-02T05:43:55;18.00;99.90
12460;DHT22;6295;49.452;8.466;2023-07-02T05:47:57;18.10;99.90
12460;DHT22;6295;49.452;8.466;2023-07-02T05:56:03;18.20;99.90
12460;DHT22;6295;49.452;8.466;2023-07-02T06:00:06;18.30;99.90
12460;DHT22;6295;49.452;8.466;2023-07-02T06:04:08;18.20;99.90
12460;DHT22;6295;49.452;8.466;2023-07-02T06:08:10;18.30;99.90
12460;DHT22;6295;49.452;8.466;2023-07-02T06:12:14;18.30;99.90
12460;DHT22;6295;49.452;8.466;2023-07-02T06:20:18;18.40;99.90
12460;DHT22;6295;49.452;8.466;2023-07-02T06:24:20;18.30;99.90
12460;DHT22;6295;49.452;8.466;2023-07-02T06:32:26;18.40;99.90
12460;DHT22;6295;49.452;8.466;2023-07-02T06:40:32;18.60;99.90
12460;DHT22;6295;49.452;8.466;2023-07-02T06:44:36;18.70;99.90
12460;DHT22;6295;49.452;8.466;2023-07-02T06:48:38;18.60;99.90
12460;DHT22;6295;49.452;8.466;2023-07-02T06:52:40;18.80;99.90
12460;DHT22;6295;49.452;8.466;2023-07-02T06:56:42;18.80;99.90
12460;DHT22;6295;49.452;8.466;2023-07-02T07:00:46;18.80;99.90
12460;DHT22;6295;49.452;8.466;2023-07-02T07:04:48;18.80;99.90
12460;DHT22;6295;49.452;8.466;2023-07-02T07:08:50;18.90;99.90
12460;DHT22;6295;49.452;8.466;2023-07-02T07:12:52;19.00;99.90
12460;DHT22;6295;49.452;8.466;2023-07-02T07:16:55;19.10;99.90
12460;DHT22;6295;49.452;8.466;2023-07-02T07:20:58;19.20;99.90
12460;DHT22;6295;49.452;8.466;2023-07-02T07:25:00;19.20;99.90
12460;DHT22;6295;49.452;8.466;2023-07-02T07:29:03;19.40;99.90
12460;DHT22;6295;49.452;8.466;2023-07-02T07:37:09;19.60;99.90
12460;DHT22;6295;49.452;8.466;2023-07-02T07:41:11;19.70;99.90
12460;DHT22;6295;49.452;8.466;2023-07-02T07:45:14;20.00;99.90
12460;DHT22;6295;49.452;8.466;2023-07-02T07:49:18;20.30;99.90
12460;DHT22;6295;49.452;8.466;2023-07-02T07:53:20;20.40;99.90
12460;DHT22;6295;49.452;8.466;2023-07-02T07:57:22;20.40;99.90
12460;DHT22;6295;49.452;8.466;2023-07-02T08:05:30;20.40;99.90
12460;DHT22;6295;49.452;8.466;2023-07-02T08:09:32;20.40;99.90
12460;DHT22;6295;49.452;8.466;2023-07-02T08:13:35;20.50;99.90
12460;DHT22;6295;49.452;8.466;2023-07-02T08:17:37;20.50;99.90
12460;DHT22;6295;49.452;8.466;2023-07-02T08:21:41;20.50;99.90
12460;DHT22;6295;49.452;8.466;2023-07-02T08:25:43;20.50;99.90
12460;DHT22;6295;49.452;8.466;2023-07-02T08:29:45;20.50;99.90
12460;DHT22;6295;49.452;8.466;2023-07-02T08:37:51;20.60;99.90
12460;DHT22;6295;49.452;8.466;2023-07-02T08:41:53;20.80;99.90
12460;DHT22;6295;49.452;8.466;2023-07-02T08:45:55;20.80;99.90
12460;DHT22;6295;49.452;8.466;2023-07-02T08:49:59;20.90;99.90
12460;DHT22;6295;49.452;8.466;2023-07-02T08:54:05;20.90;99.90
12460;DHT22;6295;49.452;8.466;2023-07-02T09:02:09;21.00;99.90
12460;DHT22;6295;49.452;8.466;2023-07-02T09:06:12;21.00;99.90
12460;DHT22;6295;49.452;8.466;2023-07-02T09:10:27;21.10;99.90
12460;DHT22;6295;49.452;8.466;2023-07-02T09:14:31;21.10;99.90
12460;DHT22;6295;49.452;8.466;2023-07-02T09:18:33;21.10;99.90
12460;DHT22;6295;49.452;8.466;2023-07-02T09:22:35;21.20;99.90
12460;DHT22;6295;49.452;8.466;2023-07-02T09:26:46;21.20;99.90
12460;DHT22;6295;49.452;8.466;2023-07-02T09:38:58;21.40;99.90
12460;DHT22;6295;49.452;8.466;2023-07-02T09:43:04;21.40;99.90
12460;DHT22;6295;49.452;8.466;2023-07-02T09:47:08;21.50;99.90
12460;DHT22;6295;49.452;8.466;2023-07-02T09:55:14;21.70;99.90
12460;DHT22;6295;49.452;8.466;2023-07-02T09:59:21;21.80;99.90
12460;DHT22;6295;49.452;8.466;2023-07-02T10:03:29;21.80;99.90
12460;DHT22;6295;49.452;8.466;2023-07-02T10:07:36;21.80;99.90
12460;DHT22;6295;49.452;8.466;2023-07-02T10:11:42;21.80;99.90
12460;DHT22;6295;49.452;8.466;2023-07-02T10:15:48;21.90;99.80
12460;DHT22;6295;49.452;8.466;2023-07-02T10:19:51;21.90;99.70
12460;DHT22;6295;49.452;8.466;2023-07-02T10:28:00;22.10;99.90
12460;DHT22;6295;49.452;8.466;2023-07-02T10:40:22;22.20;98.00
12460;DHT22;6295;49.452;8.466;2023-07-02T10:52:37;22.60;98.30
12460;DHT22;6295;49.452;8.466;2023-07-02T11:00:44;22.30;96.80
12460;DHT22;6295;49.452;8.466;2023-07-02T11:04:48;22.40;98.10
12460;DHT22;6295;49.452;8.466;2023-07-02T11:08:50;22.50;98.20
12460;DHT22;6295;49.452;8.466;2023-07-02T11:12:52;22.70;98.40
12460;DHT22;6295;49.452;8.466;2023-07-02T11:21:09;22.70;97.90
12460;DHT22;6295;49.452;8.466;2023-07-02T11:25:12;22.70;97.80
12460;DHT22;6295;49.452;8.466;2023-07-02T11:29:18;22.60;98.00
12460;DHT22;6295;49.452;8.466;2023-07-02T11:33:32;22.80;96.90
12460;DHT22;6295;49.452;8.466;2023-07-02T11:37:36;23.00;95.20
12460;DHT22;6295;49.452;8.466;2023-07-02T11:41:38;22.90;94.30
12460;DHT22;6295;49.452;8.466;2023-07-02T11:45:40;22.70;95.00
12460;DHT22;6295;49.452;8.466;2023-07-02T11:49:42;22.80;95.70
12460;DHT22;6295;49.452;8.466;2023-07-02T11:57:48;23.00;96.10
12460;DHT22;6295;49.452;8.466;2023-07-02T12:01:52;23.30;96.60
12460;DHT22;6295;49.452;8.466;2023-07-02T12:05:54;23.60;96.50
12460;DHT22;6295;49.452;8.466;2023-07-02T12:09:59;23.60;94.90
12460;DHT22;6295;49.452;8.466;2023-07-02T12:14:01;23.30;94.60
12460;DHT22;6295;49.452;8.466;2023-07-02T12:18:03;23.20;95.20
12460;DHT22;6295;49.452;8.466;2023-07-02T12:22:06;23.40;94.80
12460;DHT22;6295;49.452;8.466;2023-07-02T12:26:10;23.60;93.70
12460;DHT22;6295;49.452;8.466;2023-07-02T12:30:12;23.80;93.80
12460;DHT22;6295;49.452;8.466;2023-07-02T12:34:19;23.90;94.40
12460;DHT22;6295;49.452;8.466;2023-07-02T12:38:24;23.80;94.20
12460;DHT22;6295;49.452;8.466;2023-07-02T12:42:27;23.60;93.40
12460;DHT22;6295;49.452;8.466;2023-07-02T12:50:32;23.40;94.20
12460;DHT22;6295;49.452;8.466;2023-07-02T13:06:42;24.20;93.30
12460;DHT22;6295;49.452;8.466;2023-07-02T13:14:49;24.40;93.50
12460;DHT22;6295;49.452;8.466;2023-07-02T13:27:00;24.40;93.10
12460;DHT22;6295;49.452;8.466;2023-07-02T13:31:05;24.40;92.80
12460;DHT22;6295;49.452;8.466;2023-07-02T13:35:09;24.40;92.90
12460;DHT22;6295;49.452;8.466;2023-07-02T13:39:11;24.30;92.20
12460;DHT22;6295;49.452;8.466;2023-07-02T13:43:13;24.30;94.20
12460;DHT22;6295;49.452;8.466;2023-07-02T13:47:16;24.40;92.70
12460;DHT22;6295;49.452;8.466;2023-07-02T13:51:19;24.50;93.60
12460;DHT22;6295;49.452;8.466;2023-07-02T13:55:21;24.70;93.50
12460;DHT22;6295;49.452;8.466;2023-07-02T13:59:29;24.90;92.70
12460;DHT22;6295;49.452;8.466;2023-07-02T14:03:31;25.00;92.70
12460;DHT22;6295;49.452;8.466;2023-07-02T14:07:33;25.10;91.70
12460;DHT22;6295;49.452;8.466;2023-07-02T14:11:38;25.20;91.20
12460;DHT22;6295;49.452;8.466;2023-07-02T14:15:41;25.30;90.70
12460;DHT22;6295;49.452;8.466;2023-07-02T14:19:44;25.30;88.90
12460;DHT22;6295;49.452;8.466;2023-07-02T14:23:47;25.30;88.40
12460;DHT22;6295;49.452;8.466;2023-07-02T14:27:49;25.30;90.50
12460;DHT22;6295;49.452;8.466;2023-07-02T14:31:52;25.40;89.40
12460;DHT22;6295;49.452;8.466;2023-07-02T14:35:54;25.30;88.40
12460;DHT22;6295;49.452;8.466;2023-07-02T14:39:56;25.20;90.00
12460;DHT22;6295;49.452;8.466;2023-07-02T14:43:59;25.30;89.90
12460;DHT22;6295;49.452;8.466;2023-07-02T14:48:02;25.40;89.60
12460;DHT22;6295;49.452;8.466;2023-07-02T14:52:05;25.50;88.70
12460;DHT22;6295;49.452;8.466;2023-07-02T14:56:07;25.60;90.50
12460;DHT22;6295;49.452;8.466;2023-07-02T15:04:14;25.80;90.00
12460;DHT22;6295;49.452;8.466;2023-07-02T15:08:17;25.90;87.70
12460;DHT22;6295;49.452;8.466;2023-07-02T15:16:22;26.00;86.40
12460;DHT22;6295;49.452;8.466;2023-07-02T15:20:26;26.00;87.10
12460;DHT22;6295;49.452;8.466;2023-07-02T15:24:30;26.00;83.80
12460;DHT22;6295;49.452;8.466;2023-07-02T15:28:36;26.00;85.70
12460;DHT22;6295;49.452;8.466;2023-07-02T15:32:40;26.10;85.50
12460;DHT22;6295;49.452;8.466;2023-07-02T15:36:46;26.00;84.40
12460;DHT22;6295;49.452;8.466;2023-07-02T15:40:49;26.10;85.60
12460;DHT22;6295;49.452;8.466;2023-07-02T15:48:53;26.10;84.70
12460;DHT22;6295;49.452;8.466;2023-07-02T15:52:56;26.10;84.60
12460;DHT22;6295;49.452;8.466;2023-07-02T15:56:59;26.10;83.90
12460;DHT22;6295;49.452;8.466;2023-07-02T16:01:09;25.90;84.80
12460;DHT22;6295;49.452;8.466;2023-07-02T16:05:12;25.90;86.30
12460;DHT22;6295;49.452;8.466;2023-07-02T16:09:15;26.00;85.20
12460;DHT22;6295;49.452;8.466;2023-07-02T16:13:17;26.00;82.40
12460;DHT22;6295;49.452;8.466;2023-07-02T16:17:19;25.80;83.40
12460;DHT22;6295;49.452;8.466;2023-07-02T16:21:21;25.60;85.20
12460;DHT22;6295;49.452;8.466;2023-07-02T16:25:26;25.60;85.90
12460;DHT22;6295;49.452;8.466;2023-07-02T16:29:31;25.50;84.70
12460;DHT22;6295;49.452;8.466;2023-07-02T16:33:33;25.20;84.70
12460;DHT22;6295;49.452;8.466;2023-07-02T16:37:37;25.20;84.90
12460;DHT22;6295;49.452;8.466;2023-07-02T16:41:41;25.20;84.40
12460;DHT22;6295;49.452;8.466;2023-07-02T16:45:51;25.10;85.00
12460;DHT22;6295;49.452;8.466;2023-07-02T16:49:53;25.00;83.30
12460;DHT22;6295;49.452;8.466;2023-07-02T16:53:55;24.80;84.70
12460;DHT22;6295;49.452;8.466;2023-07-02T16:57:58;24.70;85.10
12460;DHT22;6295;49.452;8.466;2023-07-02T17:02:05;24.40;85.70
12460;DHT22;6295;49.452;8.466;2023-07-02T17:06:08;24.40;86.40
12460;DHT22;6295;49.452;8.466;2023-07-02T17:10:10;24.50;87.10
12460;DHT22;6295;49.452;8.466;2023-07-02T17:18:21;24.90;85.20
12460;DHT22;6295;49.452;8.466;2023-07-02T17:22:24;24.80;85.10
12460;DHT22;6295;49.452;8.466;2023-07-02T17:26:26;24.50;85.50
12460;DHT22;6295;49.452;8.466;2023-07-02T17:30:30;24.30;85.10
12460;DHT22;6295;49.452;8.466;2023-07-02T17:34:35;24.20;86.20
12460;DHT22;6295;49.452;8.466;2023-07-02T17:42:47;24.20;88.30
12460;DHT22;6295;49.452;8.466;2023-07-02T17:46:52;24.30;86.60
12460;DHT22;6295;49.452;8.466;2023-07-02T17:50:55;24.30;86.20
12460;DHT22;6295;49.452;8.466;2023-07-02T17:54:57;24.30;85.20
12460;DHT22;6295;49.452;8.466;2023-07-02T17:59:01;24.10;85.00
12460;DHT22;6295;49.452;8.466;2023-07-02T18:03:05;23.90;85.70
12460;DHT22;6295;49.452;8.466;2023-07-02T18:07:08;23.70;85.10
12460;DHT22;6295;49.452;8.466;2023-07-02T18:11:14;23.70;85.40
12460;DHT22;6295;49.452;8.466;2023-07-02T18:15:16;23.70;86.30
12460;DHT22;6295;49.452;8.466;2023-07-02T18:19:19;23.60;86.50
12460;DHT22;6295;49.452;8.466;2023-07-02T18:23:24;23.60;86.90
12460;DHT22;6295;49.452;8.466;2023-07-02T18:27:26;23.60;87.20
12460;DHT22;6295;49.452;8.466;2023-07-02T18:35:34;23.50;86.60
12460;DHT22;6295;49.452;8.466;2023-07-02T18:39:43;23.30;86.20
12460;DHT22;6295;49.452;8.466;2023-07-02T18:43:46;23.20;86.10
12460;DHT22;6295;49.452;8.466;2023-07-02T18:47:48;23.20;86.30
12460;DHT22;6295;49.452;8.466;2023-07-02T18:55:58;22.90;86.60
